Portada
METAR-TAF:

METAR-TAF

Aeroports :

Virginia Highlands Airport

Abingdon, Virgínia, Estats Units d'Amèrica

latitud: 36-41N, longitud: 082-02W, altitud: 631 m

Observació

L'informe es va fer fa 19 minuts, a les 12:35 UTC
Vent 4 kt del Oest
Temperatura 3°C
Humitat 75%
Pressió 1011 hPa
Visibilitat: 16.1 km
Cel cobert a una alçada de 2600 ft

METAR: KVJI 191235Z AUTO 28004KT 10SM OVC026 03/M01 A2984 RMK AO2 T00311006

Hora: 07:54 (12:54 UTC)


TAF: manca

Observacions i pronòstics meteorològics de més de 4000 aeroports (METAR i TAF).

Les estacions disponibles són els punts grocs i vermells al mapa.

Posi el ratolí al punt desitjat per veure el nom de l'estació.

Feu clic per veure les observacions i els pronòstics meteorològics.

Per canviar el mapa: feu clic els botons verds amb una creu de color negre per apropar; al botó verd amb un guió per allunyar la imatge; o en les fletxes verdes per a mapes adjacents.


METAR-TAF: